sensor_id;sensor_type;location;lat;lon;timestamp;P1;durP1;ratioP1;P2;durP2;ratioP2
3121;SDS011;1571;52.524;14.104;2022-10-14T00:01:19;11.67;;;10.33;;
3121;SDS011;1571;52.524;14.104;2022-10-14T00:03:49;16.10;;;11.57;;
3121;SDS011;1571;52.524;14.104;2022-10-14T00:06:21;13.33;;;11.40;;
3121;SDS011;1571;52.524;14.104;2022-10-14T00:08:50;12.20;;;10.90;;
3121;SDS011;1571;52.524;14.104;2022-10-14T00:11:19;13.00;;;11.60;;
3121;SDS011;1571;52.524;14.104;2022-10-14T00:13:49;11.30;;;10.20;;
3121;SDS011;1571;52.524;14.104;2022-10-14T00:16:21;13.63;;;11.00;;
3121;SDS011;1571;52.524;14.104;2022-10-14T00:18:50;12.00;;;10.43;;
3121;SDS011;1571;52.524;14.104;2022-10-14T00:21:20;14.60;;;10.93;;
3121;SDS011;1571;52.524;14.104;2022-10-14T00:23:49;12.87;;;10.20;;
3121;SDS011;1571;52.524;14.104;2022-10-14T00:26:17;12.83;;;10.50;;
3121;SDS011;1571;52.524;14.104;2022-10-14T00:28:48;19.00;;;11.63;;
3121;SDS011;1571;52.524;14.104;2022-10-14T00:31:17;13.27;;;11.87;;
3121;SDS011;1571;52.524;14.104;2022-10-14T00:33:46;23.80;;;10.93;;
3121;SDS011;1571;52.524;14.104;2022-10-14T00:36:16;16.33;;;10.57;;
3121;SDS011;1571;52.524;14.104;2022-10-14T00:38:47;11.37;;;10.03;;
3121;SDS011;1571;52.524;14.104;2022-10-14T00:41:16;11.03;;;9.50;;
3121;SDS011;1571;52.524;14.104;2022-10-14T00:43:57;15.50;;;11.27;;
3121;SDS011;1571;52.524;14.104;2022-10-14T00:46:27;11.90;;;9.40;;
3121;SDS011;1571;52.524;14.104;2022-10-14T00:49:01;12.77;;;9.17;;
3121;SDS011;1571;52.524;14.104;2022-10-14T00:51:32;13.83;;;8.90;;
3121;SDS011;1571;52.524;14.104;2022-10-14T00:54:03;13.80;;;10.40;;
3121;SDS011;1571;52.524;14.104;2022-10-14T00:56:31;12.17;;;10.50;;
3121;SDS011;1571;52.524;14.104;2022-10-14T00:59:02;13.20;;;10.53;;
3121;SDS011;1571;52.524;14.104;2022-10-14T01:01:32;15.53;;;11.47;;
3121;SDS011;1571;52.524;14.104;2022-10-14T01:04:00;13.53;;;9.40;;
3121;SDS011;1571;52.524;14.104;2022-10-14T01:06:33;10.90;;;9.80;;
3121;SDS011;1571;52.524;14.104;2022-10-14T01:09:15;10.33;;;8.20;;
3121;SDS011;1571;52.524;14.104;2022-10-14T01:11:55;10.60;;;9.50;;
3121;SDS011;1571;52.524;14.104;2022-10-14T01:14:55;11.23;;;9.50;;
3121;SDS011;1571;52.524;14.104;2022-10-14T01:17:34;11.43;;;10.23;;
3121;SDS011;1571;52.524;14.104;2022-10-14T01:20:15;14.50;;;8.33;;
3121;SDS011;1571;52.524;14.104;2022-10-14T01:23:00;12.00;;;10.37;;
3121;SDS011;1571;52.524;14.104;2022-10-14T01:25:48;12.37;;;8.90;;
3121;SDS011;1571;52.524;14.104;2022-10-14T01:28:24;15.20;;;10.23;;
3121;SDS011;1571;52.524;14.104;2022-10-14T01:30:59;11.27;;;10.17;;
3121;SDS011;1571;52.524;14.104;2022-10-14T01:33:32;11.80;;;9.37;;
3121;SDS011;1571;52.524;14.104;2022-10-14T01:36:05;15.97;;;10.87;;
3121;SDS011;1571;52.524;14.104;2022-10-14T01:38:40;12.97;;;9.80;;
3121;SDS011;1571;52.524;14.104;2022-10-14T01:41:13;11.17;;;8.60;;
3121;SDS011;1571;52.524;14.104;2022-10-14T01:43:46;16.33;;;8.70;;
3121;SDS011;1571;52.524;14.104;2022-10-14T01:46:18;15.00;;;9.23;;
3121;SDS011;1571;52.524;14.104;2022-10-14T01:48:49;9.60;;;8.27;;
3121;SDS011;1571;52.524;14.104;2022-10-14T01:51:22;12.90;;;9.47;;
3121;SDS011;1571;52.524;14.104;2022-10-14T01:53:56;13.43;;;9.73;;
3121;SDS011;1571;52.524;14.104;2022-10-14T01:56:27;10.57;;;9.10;;
3121;SDS011;1571;52.524;14.104;2022-10-14T01:58:58;15.43;;;9.23;;
3121;SDS011;1571;52.524;14.104;2022-10-14T02:01:31;13.73;;;9.97;;
3121;SDS011;1571;52.524;14.104;2022-10-14T02:04:00;9.53;;;8.03;;
3121;SDS011;1571;52.524;14.104;2022-10-14T02:06:29;15.83;;;9.23;;
3121;SDS011;1571;52.524;14.104;2022-10-14T02:09:06;16.27;;;10.87;;
3121;SDS011;1571;52.524;14.104;2022-10-14T02:11:45;12.00;;;9.80;;
3121;SDS011;1571;52.524;14.104;2022-10-14T02:14:24;12.00;;;10.03;;
3121;SDS011;1571;52.524;14.104;2022-10-14T02:17:00;14.70;;;10.23;;
3121;SDS011;1571;52.524;14.104;2022-10-14T02:19:34;12.10;;;10.40;;
3121;SDS011;1571;52.524;14.104;2022-10-14T02:22:07;11.97;;;9.20;;
3121;SDS011;1571;52.524;14.104;2022-10-14T02:24:43;14.83;;;9.50;;
3121;SDS011;1571;52.524;14.104;2022-10-14T02:27:16;11.40;;;10.10;;
3121;SDS011;1571;52.524;14.104;2022-10-14T02:29:46;13.00;;;10.90;;
3121;SDS011;1571;52.524;14.104;2022-10-14T02:32:18;14.50;;;10.17;;
3121;SDS011;1571;52.524;14.104;2022-10-14T02:34:49;13.87;;;9.53;;
3121;SDS011;1571;52.524;14.104;2022-10-14T02:37:20;11.50;;;10.07;;
3121;SDS011;1571;52.524;14.104;2022-10-14T02:39:51;12.33;;;10.30;;
3121;SDS011;1571;52.524;14.104;2022-10-14T02:42:24;15.37;;;9.67;;
3121;SDS011;1571;52.524;14.104;2022-10-14T02:44:56;12.00;;;9.70;;
3121;SDS011;1571;52.524;14.104;2022-10-14T02:47:27;14.30;;;9.17;;
3121;SDS011;1571;52.524;14.104;2022-10-14T02:49:55;11.93;;;9.33;;
3121;SDS011;1571;52.524;14.104;2022-10-14T02:52:24;13.27;;;9.00;;
3121;SDS011;1571;52.524;14.104;2022-10-14T02:54:52;14.93;;;10.60;;
3121;SDS011;1571;52.524;14.104;2022-10-14T02:57:21;12.23;;;9.57;;
3121;SDS011;1571;52.524;14.104;2022-10-14T02:59:49;13.87;;;9.37;;
3121;SDS011;1571;52.524;14.104;2022-10-14T03:02:18;10.20;;;9.13;;
3121;SDS011;1571;52.524;14.104;2022-10-14T03:04:48;13.00;;;10.10;;
3121;SDS011;1571;52.524;14.104;2022-10-14T03:07:16;12.87;;;9.27;;
3121;SDS011;1571;52.524;14.104;2022-10-14T03:09:48;11.73;;;10.23;;
3121;SDS011;1571;52.524;14.104;2022-10-14T03:12:16;15.50;;;10.40;;
3121;SDS011;1571;52.524;14.104;2022-10-14T03:14:47;11.70;;;9.17;;
3121;SDS011;1571;52.524;14.104;2022-10-14T03:17:17;12.30;;;8.93;;
3121;SDS011;1571;52.524;14.104;2022-10-14T03:19:49;11.57;;;8.70;;
3121;SDS011;1571;52.524;14.104;2022-10-14T03:22:17;14.67;;;9.67;;
3121;SDS011;1571;52.524;14.104;2022-10-14T03:24:46;9.20;;;7.63;;
3121;SDS011;1571;52.524;14.104;2022-10-14T03:27:33;10.40;;;8.00;;
3121;SDS011;1571;52.524;14.104;2022-10-14T03:30:07;13.20;;;9.47;;
3121;SDS011;1571;52.524;14.104;2022-10-14T03:32:43;9.90;;;7.30;;
3121;SDS011;1571;52.524;14.104;2022-10-14T03:35:27;10.10;;;8.60;;
3121;SDS011;1571;52.524;14.104;2022-10-14T03:37:56;10.80;;;9.30;;
3121;SDS011;1571;52.524;14.104;2022-10-14T03:40:30;12.73;;;8.53;;
3121;SDS011;1571;52.524;14.104;2022-10-14T03:43:00;11.90;;;8.27;;
3121;SDS011;1571;52.524;14.104;2022-10-14T03:45:37;10.70;;;8.50;;
3121;SDS011;1571;52.524;14.104;2022-10-14T03:48:05;13.57;;;8.27;;
3121;SDS011;1571;52.524;14.104;2022-10-14T03:50:39;9.47;;;7.83;;
3121;SDS011;1571;52.524;14.104;2022-10-14T03:53:08;10.43;;;9.30;;
3121;SDS011;1571;52.524;14.104;2022-10-14T03:55:36;15.50;;;8.20;;
3121;SDS011;1571;52.524;14.104;2022-10-14T03:58:05;11.73;;;8.57;;
3121;SDS011;1571;52.524;14.104;2022-10-14T04:00:34;21.87;;;9.10;;
3121;SDS011;1571;52.524;14.104;2022-10-14T04:03:20;12.27;;;8.20;;
3121;SDS011;1571;52.524;14.104;2022-10-14T04:05:50;10.47;;;9.37;;
3121;SDS011;1571;52.524;14.104;2022-10-14T04:08:21;11.03;;;9.93;;
3121;SDS011;1571;52.524;14.104;2022-10-14T04:10:55;10.40;;;9.30;;
3121;SDS011;1571;52.524;14.104;2022-10-14T04:13:27;12.20;;;8.40;;
3121;SDS011;1571;52.524;14.104;2022-10-14T04:15:56;14.40;;;9.50;;
3121;SDS011;1571;52.524;14.104;2022-10-14T04:18:37;9.90;;;8.70;;
3121;SDS011;1571;52.524;14.104;2022-10-14T04:21:09;12.20;;;10.40;;
3121;SDS011;1571;52.524;14.104;2022-10-14T04:23:41;15.43;;;10.30;;
3121;SDS011;1571;52.524;14.104;2022-10-14T04:26:14;10.70;;;8.87;;
3121;SDS011;1571;52.524;14.104;2022-10-14T04:28:44;12.03;;;10.60;;
3121;SDS011;1571;52.524;14.104;2022-10-14T04:31:26;9.77;;;8.77;;
3121;SDS011;1571;52.524;14.104;2022-10-14T04:33:59;11.60;;;9.20;;
3121;SDS011;1571;52.524;14.104;2022-10-14T04:36:37;15.63;;;10.30;;
3121;SDS011;1571;52.524;14.104;2022-10-14T04:39:19;11.77;;;10.23;;
3121;SDS011;1571;52.524;14.104;2022-10-14T04:41:48;17.40;;;11.90;;
3121;SDS011;1571;52.524;14.104;2022-10-14T04:44:19;15.00;;;10.17;;
3121;SDS011;1571;52.524;14.104;2022-10-14T04:46:52;14.27;;;11.33;;
3121;SDS011;1571;52.524;14.104;2022-10-14T04:49:23;15.03;;;9.77;;
3121;SDS011;1571;52.524;14.104;2022-10-14T04:52:07;14.57;;;9.77;;
3121;SDS011;1571;52.524;14.104;2022-10-14T04:54:53;12.97;;;11.60;;
3121;SDS011;1571;52.524;14.104;2022-10-14T04:57:32;11.40;;;9.93;;
3121;SDS011;1571;52.524;14.104;2022-10-14T05:00:01;13.90;;;10.37;;
3121;SDS011;1571;52.524;14.104;2022-10-14T05:02:47;21.10;;;12.20;;
3121;SDS011;1571;52.524;14.104;2022-10-14T05:05:16;13.20;;;10.83;;
3121;SDS011;1571;52.524;14.104;2022-10-14T05:07:50;12.20;;;9.50;;
3121;SDS011;1571;52.524;14.104;2022-10-14T05:10:23;13.80;;;9.57;;
3121;SDS011;1571;52.524;14.104;2022-10-14T05:12:52;14.00;;;10.77;;
3121;SDS011;1571;52.524;14.104;2022-10-14T05:15:25;16.70;;;10.77;;
3121;SDS011;1571;52.524;14.104;2022-10-14T05:18:04;14.67;;;11.53;;
3121;SDS011;1571;52.524;14.104;2022-10-14T05:20:48;14.37;;;12.40;;
3121;SDS011;1571;52.524;14.104;2022-10-14T05:23:20;14.90;;;10.17;;
3121;SDS011;1571;52.524;14.104;2022-10-14T05:25:49;14.53;;;9.93;;
3121;SDS011;1571;52.524;14.104;2022-10-14T05:28:19;14.40;;;10.40;;
3121;SDS011;1571;52.524;14.104;2022-10-14T05:30:48;14.30;;;12.30;;
3121;SDS011;1571;52.524;14.104;2022-10-14T05:33:18;13.40;;;11.50;;
3121;SDS011;1571;52.524;14.104;2022-10-14T05:35:47;15.93;;;12.30;;
3121;SDS011;1571;52.524;14.104;2022-10-14T05:38:34;14.33;;;10.30;;
3121;SDS011;1571;52.524;14.104;2022-10-14T05:41:03;13.10;;;10.67;;
3121;SDS011;1571;52.524;14.104;2022-10-14T05:43:31;13.30;;;10.33;;
3121;SDS011;1571;52.524;14.104;2022-10-14T05:46:03;13.50;;;10.70;;
3121;SDS011;1571;52.524;14.104;2022-10-14T05:48:36;15.07;;;10.37;;
3121;SDS011;1571;52.524;14.104;2022-10-14T05:51:05;16.33;;;11.07;;
3121;SDS011;1571;52.524;14.104;2022-10-14T05:53:37;11.90;;;10.43;;
3121;SDS011;1571;52.524;14.104;2022-10-14T05:56:11;13.60;;;8.83;;
3121;SDS011;1571;52.524;14.104;2022-10-14T05:58:40;14.00;;;10.07;;
3121;SDS011;1571;52.524;14.104;2022-10-14T06:01:09;20.83;;;11.17;;
3121;SDS011;1571;52.524;14.104;2022-10-14T06:03:40;17.30;;;11.00;;
3121;SDS011;1571;52.524;14.104;2022-10-14T06:06:10;14.20;;;11.00;;
3121;SDS011;1571;52.524;14.104;2022-10-14T06:08:41;11.53;;;10.07;;
3121;SDS011;1571;52.524;14.104;2022-10-14T06:11:11;15.27;;;10.07;;
3121;SDS011;1571;52.524;14.104;2022-10-14T06:13:40;12.40;;;11.00;;
3121;SDS011;1571;52.524;14.104;2022-10-14T06:16:09;19.37;;;11.90;;
3121;SDS011;1571;52.524;14.104;2022-10-14T06:18:37;19.20;;;13.10;;
3121;SDS011;1571;52.524;14.104;2022-10-14T06:21:06;27.60;;;15.07;;
3121;SDS011;1571;52.524;14.104;2022-10-14T06:23:34;18.83;;;11.80;;
3121;SDS011;1571;52.524;14.104;2022-10-14T06:26:04;26.10;;;13.90;;
3121;SDS011;1571;52.524;14.104;2022-10-14T06:28:34;22.20;;;12.73;;
3121;SDS011;1571;52.524;14.104;2022-10-14T06:31:03;22.10;;;13.70;;
3121;SDS011;1571;52.524;14.104;2022-10-14T06:33:32;21.10;;;13.10;;
3121;SDS011;1571;52.524;14.104;2022-10-14T06:36:01;21.57;;;13.83;;
3121;SDS011;1571;52.524;14.104;2022-10-14T06:38:31;21.40;;;14.50;;
3121;SDS011;1571;52.524;14.104;2022-10-14T06:41:00;20.97;;;12.77;;
3121;SDS011;1571;52.524;14.104;2022-10-14T06:43:29;18.87;;;12.70;;
3121;SDS011;1571;52.524;14.104;2022-10-14T06:45:57;17.93;;;13.90;;
3121;SDS011;1571;52.524;14.104;2022-10-14T06:48:25;26.10;;;16.70;;
3121;SDS011;1571;52.524;14.104;2022-10-14T06:50:53;19.07;;;12.73;;
3121;SDS011;1571;52.524;14.104;2022-10-14T06:53:22;16.93;;;11.90;;
3121;SDS011;1571;52.524;14.104;2022-10-14T06:55:55;14.30;;;11.13;;
3121;SDS011;1571;52.524;14.104;2022-10-14T06:58:24;14.13;;;11.10;;
3121;SDS011;1571;52.524;14.104;2022-10-14T07:00:54;14.00;;;11.43;;
3121;SDS011;1571;52.524;14.104;2022-10-14T07:03:27;18.80;;;12.17;;
3121;SDS011;1571;52.524;14.104;2022-10-14T07:05:55;18.53;;;13.23;;
3121;SDS011;1571;52.524;14.104;2022-10-14T07:08:23;16.20;;;13.17;;
3121;SDS011;1571;52.524;14.104;2022-10-14T07:10:51;14.93;;;13.07;;
3121;SDS011;1571;52.524;14.104;2022-10-14T07:13:20;15.20;;;12.83;;
3121;SDS011;1571;52.524;14.104;2022-10-14T07:15:48;19.23;;;13.80;;
3121;SDS011;1571;52.524;14.104;2022-10-14T07:18:19;15.53;;;12.17;;
3121;SDS011;1571;52.524;14.104;2022-10-14T07:20:47;14.27;;;12.87;;
3121;SDS011;1571;52.524;14.104;2022-10-14T07:23:16;14.70;;;13.00;;
3121;SDS011;1571;52.524;14.104;2022-10-14T07:25:44;19.40;;;13.80;;
3121;SDS011;1571;52.524;14.104;2022-10-14T07:28:12;25.67;;;14.67;;
3121;SDS011;1571;52.524;14.104;2022-10-14T07:30:40;15.97;;;12.63;;
3121;SDS011;1571;52.524;14.104;2022-10-14T07:33:08;20.63;;;15.33;;
3121;SDS011;1571;52.524;14.104;2022-10-14T07:35:38;19.83;;;16.37;;
3121;SDS011;1571;52.524;14.104;2022-10-14T07:38:06;20.00;;;17.77;;
3121;SDS011;1571;52.524;14.104;2022-10-14T07:40:34;20.50;;;17.77;;
3121;SDS011;1571;52.524;14.104;2022-10-14T07:43:02;23.33;;;17.20;;
3121;SDS011;1571;52.524;14.104;2022-10-14T07:45:31;27.87;;;19.20;;
3121;SDS011;1571;52.524;14.104;2022-10-14T07:48:01;22.67;;;17.27;;
3121;SDS011;1571;52.524;14.104;2022-10-14T07:50:30;18.10;;;16.20;;
3121;SDS011;1571;52.524;14.104;2022-10-14T07:52:59;25.57;;;18.70;;
3121;SDS011;1571;52.524;14.104;2022-10-14T07:55:27;24.33;;;18.93;;
3121;SDS011;1571;52.524;14.104;2022-10-14T07:57:57;27.83;;;21.17;;
3121;SDS011;1571;52.524;14.104;2022-10-14T08:00:25;24.50;;;20.00;;
3121;SDS011;1571;52.524;14.104;2022-10-14T08:02:53;26.90;;;23.50;;
3121;SDS011;1571;52.524;14.104;2022-10-14T08:05:21;30.23;;;22.90;;
3121;SDS011;1571;52.524;14.104;2022-10-14T08:08:06;30.53;;;23.43;;
3121;SDS011;1571;52.524;14.104;2022-10-14T08:10:35;26.07;;;22.90;;
3121;SDS011;1571;52.524;14.104;2022-10-14T08:13:04;31.57;;;23.30;;
3121;SDS011;1571;52.524;14.104;2022-10-14T08:15:33;29.23;;;25.20;;
3121;SDS011;1571;52.524;14.104;2022-10-14T08:18:04;32.90;;;26.60;;
3121;SDS011;1571;52.524;14.104;2022-10-14T08:20:33;31.10;;;24.87;;
3121;SDS011;1571;52.524;14.104;2022-10-14T08:23:02;31.63;;;27.00;;
3121;SDS011;1571;52.524;14.104;2022-10-14T08:25:31;35.20;;;26.43;;
3121;SDS011;1571;52.524;14.104;2022-10-14T08:28:00;32.27;;;20.83;;
3121;SDS011;1571;52.524;14.104;2022-10-14T08:30:28;30.20;;;24.00;;
3121;SDS011;1571;52.524;14.104;2022-10-14T08:32:56;35.00;;;25.67;;
3121;SDS011;1571;52.524;14.104;2022-10-14T08:35:25;57.67;;;42.53;;
3121;SDS011;1571;52.524;14.104;2022-10-14T08:37:54;40.53;;;32.50;;
3121;SDS011;1571;52.524;14.104;2022-10-14T08:40:23;33.70;;;25.77;;
3121;SDS011;1571;52.524;14.104;2022-10-14T08:42:56;32.00;;;24.87;;
3121;SDS011;1571;52.524;14.104;2022-10-14T08:45:30;29.33;;;22.27;;
3121;SDS011;1571;52.524;14.104;2022-10-14T08:48:01;27.73;;;20.13;;
3121;SDS011;1571;52.524;14.104;2022-10-14T08:50:40;36.07;;;21.17;;
3121;SDS011;1571;52.524;14.104;2022-10-14T08:53:15;58.60;;;34.10;;
3121;SDS011;1571;52.524;14.104;2022-10-14T08:55:45;55.10;;;34.33;;
3121;SDS011;1571;52.524;14.104;2022-10-14T08:58:17;52.37;;;31.80;;
3121;SDS011;1571;52.524;14.104;2022-10-14T09:00:55;29.97;;;19.80;;
3121;SDS011;1571;52.524;14.104;2022-10-14T09:03:26;25.67;;;20.80;;
3121;SDS011;1571;52.524;14.104;2022-10-14T09:06:00;40.70;;;27.33;;
3121;SDS011;1571;52.524;14.104;2022-10-14T09:08:32;39.27;;;26.83;;
3121;SDS011;1571;52.524;14.104;2022-10-14T09:11:04;22.60;;;18.57;;
3121;SDS011;1571;52.524;14.104;2022-10-14T09:13:38;24.07;;;19.67;;
3121;SDS011;1571;52.524;14.104;2022-10-14T09:16:11;24.40;;;21.57;;
3121;SDS011;1571;52.524;14.104;2022-10-14T09:18:45;27.77;;;19.37;;
3121;SDS011;1571;52.524;14.104;2022-10-14T09:21:23;21.97;;;19.30;;
3121;SDS011;1571;52.524;14.104;2022-10-14T09:24:14;27.17;;;19.43;;
3121;SDS011;1571;52.524;14.104;2022-10-14T09:26:46;27.03;;;22.30;;
3121;SDS011;1571;52.524;14.104;2022-10-14T09:29:22;27.67;;;19.07;;
3121;SDS011;1571;52.524;14.104;2022-10-14T09:31:54;25.50;;;20.27;;
3121;SDS011;1571;52.524;14.104;2022-10-14T09:34:27;23.87;;;18.43;;
3121;SDS011;1571;52.524;14.104;2022-10-14T09:36:59;20.93;;;17.83;;
3121;SDS011;1571;52.524;14.104;2022-10-14T09:39:38;24.00;;;16.23;;
3121;SDS011;1571;52.524;14.104;2022-10-14T09:42:09;26.00;;;16.80;;
3121;SDS011;1571;52.524;14.104;2022-10-14T09:44:45;19.37;;;16.00;;
3121;SDS011;1571;52.524;14.104;2022-10-14T09:47:38;23.43;;;17.13;;
3121;SDS011;1571;52.524;14.104;2022-10-14T09:50:19;22.17;;;15.93;;
3121;SDS011;1571;52.524;14.104;2022-10-14T09:52:54;17.60;;;13.20;;
3121;SDS011;1571;52.524;14.104;2022-10-14T09:55:27;17.90;;;14.37;;
3121;SDS011;1571;52.524;14.104;2022-10-14T09:57:59;21.43;;;15.20;;
3121;SDS011;1571;52.524;14.104;2022-10-14T10:00:35;17.13;;;15.30;;
3121;SDS011;1571;52.524;14.104;2022-10-14T10:03:05;22.53;;;14.40;;
3121;SDS011;1571;52.524;14.104;2022-10-14T10:05:34;21.23;;;14.07;;
3121;SDS011;1571;52.524;14.104;2022-10-14T10:08:13;17.70;;;14.27;;
3121;SDS011;1571;52.524;14.104;2022-10-14T10:10:55;16.40;;;13.70;;
3121;SDS011;1571;52.524;14.104;2022-10-14T10:13:37;24.53;;;14.97;;
3121;SDS011;1571;52.524;14.104;2022-10-14T10:16:16;17.20;;;14.90;;
3121;SDS011;1571;52.524;14.104;2022-10-14T10:18:46;21.97;;;15.13;;
3121;SDS011;1571;52.524;14.104;2022-10-14T10:21:16;17.57;;;14.13;;
3121;SDS011;1571;52.524;14.104;2022-10-14T10:23:50;16.13;;;13.30;;
3121;SDS011;1571;52.524;14.104;2022-10-14T10:26:22;19.70;;;13.67;;
3121;SDS011;1571;52.524;14.104;2022-10-14T10:28:53;23.43;;;14.30;;
3121;SDS011;1571;52.524;14.104;2022-10-14T10:34:36;17.80;;;12.53;;
3121;SDS011;1571;52.524;14.104;2022-10-14T10:37:24;20.27;;;13.10;;
3121;SDS011;1571;52.524;14.104;2022-10-14T10:40:00;17.80;;;11.67;;
3121;SDS011;1571;52.524;14.104;2022-10-14T10:42:37;18.30;;;10.90;;
3121;SDS011;1571;52.524;14.104;2022-10-14T10:45:14;17.77;;;12.20;;
3121;SDS011;1571;52.524;14.104;2022-10-14T10:47:45;12.23;;;10.93;;
3121;SDS011;1571;52.524;14.104;2022-10-14T10:50:22;15.10;;;11.00;;
3121;SDS011;1571;52.524;14.104;2022-10-14T10:52:59;13.23;;;11.80;;
3121;SDS011;1571;52.524;14.104;2022-10-14T10:55:42;13.07;;;11.77;;
3121;SDS011;1571;52.524;14.104;2022-10-14T10:58:23;14.60;;;11.13;;
3121;SDS011;1571;52.524;14.104;2022-10-14T11:01:09;13.93;;;11.57;;
3121;SDS011;1571;52.524;14.104;2022-10-14T11:03:53;15.37;;;10.40;;
3121;SDS011;1571;52.524;14.104;2022-10-14T11:06:32;12.50;;;9.87;;
3121;SDS011;1571;52.524;14.104;2022-10-14T11:09:29;15.23;;;11.00;;
3121;SDS011;1571;52.524;14.104;2022-10-14T11:12:29;11.30;;;9.70;;
3121;SDS011;1571;52.524;14.104;2022-10-14T11:15:11;10.47;;;9.37;;
3121;SDS011;1571;52.524;14.104;2022-10-14T11:17:48;14.10;;;8.80;;
3121;SDS011;1571;52.524;14.104;2022-10-14T11:20:30;11.23;;;8.73;;
3121;SDS011;1571;52.524;14.104;2022-10-14T11:23:19;11.70;;;9.27;;
3121;SDS011;1571;52.524;14.104;2022-10-14T11:26:01;13.43;;;8.87;;
3121;SDS011;1571;52.524;14.104;2022-10-14T11:28:38;10.23;;;8.07;;
3121;SDS011;1571;52.524;14.104;2022-10-14T11:31:15;18.13;;;11.73;;
3121;SDS011;1571;52.524;14.104;2022-10-14T11:34:05;10.93;;;8.90;;
3121;SDS011;1571;52.524;14.104;2022-10-14T11:36:51;9.60;;;8.30;;
3121;SDS011;1571;52.524;14.104;2022-10-14T11:39:29;11.07;;;8.57;;
3121;SDS011;1571;52.524;14.104;2022-10-14T11:42:17;11.77;;;9.33;;
3121;SDS011;1571;52.524;14.104;2022-10-14T11:45:00;12.40;;;9.60;;
3121;SDS011;1571;52.524;14.104;2022-10-14T11:47:55;12.13;;;9.13;;
3121;SDS011;1571;52.524;14.104;2022-10-14T11:50:34;13.13;;;9.00;;
3121;SDS011;1571;52.524;14.104;2022-10-14T11:53:09;10.97;;;9.73;;
3121;SDS011;1571;52.524;14.104;2022-10-14T11:55:45;13.17;;;8.30;;
3121;SDS011;1571;52.524;14.104;2022-10-14T11:58:17;15.63;;;8.93;;
3121;SDS011;1571;52.524;14.104;2022-10-14T12:00:54;13.90;;;7.70;;
3121;SDS011;1571;52.524;14.104;2022-10-14T12:03:28;9.77;;;8.10;;
3121;SDS011;1571;52.524;14.104;2022-10-14T12:06:11;12.83;;;7.50;;
3121;SDS011;1571;52.524;14.104;2022-10-14T12:08:46;9.80;;;8.03;;
3121;SDS011;1571;52.524;14.104;2022-10-14T12:11:22;8.97;;;7.60;;
3121;SDS011;1571;52.524;14.104;2022-10-14T12:13:56;11.43;;;7.63;;
3121;SDS011;1571;52.524;14.104;2022-10-14T12:16:31;10.30;;;7.50;;
3121;SDS011;1571;52.524;14.104;2022-10-14T12:19:00;10.13;;;9.00;;
3121;SDS011;1571;52.524;14.104;2022-10-14T12:21:31;13.13;;;8.87;;
3121;SDS011;1571;52.524;14.104;2022-10-14T12:24:05;8.77;;;7.53;;
3121;SDS011;1571;52.524;14.104;2022-10-14T12:26:50;11.10;;;6.73;;
3121;SDS011;1571;52.524;14.104;2022-10-14T12:29:20;7.00;;;6.30;;
3121;SDS011;1571;52.524;14.104;2022-10-14T12:32:04;10.57;;;8.00;;
3121;SDS011;1571;52.524;14.104;2022-10-14T12:34:37;9.73;;;6.70;;
3121;SDS011;1571;52.524;14.104;2022-10-14T12:40:29;7.97;;;7.17;;
3121;SDS011;1571;52.524;14.104;2022-10-14T12:42:59;9.13;;;7.07;;
3121;SDS011;1571;52.524;14.104;2022-10-14T12:45:33;8.40;;;7.27;;
3121;SDS011;1571;52.524;14.104;2022-10-14T12:48:14;8.70;;;6.70;;
3121;SDS011;1571;52.524;14.104;2022-10-14T12:50:45;8.97;;;7.00;;
3121;SDS011;1571;52.524;14.104;2022-10-14T12:53:17;9.40;;;6.27;;
3121;SDS011;1571;52.524;14.104;2022-10-14T12:55:51;11.27;;;7.03;;
3121;SDS011;1571;52.524;14.104;2022-10-14T12:58:22;8.93;;;7.80;;
3121;SDS011;1571;52.524;14.104;2022-10-14T13:00:55;8.43;;;7.63;;
3121;SDS011;1571;52.524;14.104;2022-10-14T13:03:29;10.60;;;7.80;;
3121;SDS011;1571;52.524;14.104;2022-10-14T13:18:33;12.67;;;10.00;;
3121;SDS011;1571;52.524;14.104;2022-10-14T13:21:03;11.87;;;9.70;;
3121;SDS011;1571;52.524;14.104;2022-10-14T13:23:35;9.50;;;8.60;;
3121;SDS011;1571;52.524;14.104;2022-10-14T13:26:10;9.20;;;7.87;;
3121;SDS011;1571;52.524;14.104;2022-10-14T13:28:51;10.60;;;8.60;;
3121;SDS011;1571;52.524;14.104;2022-10-14T13:31:32;9.90;;;8.90;;
3121;SDS011;1571;52.524;14.104;2022-10-14T13:34:11;8.70;;;7.30;;
3121;SDS011;1571;52.524;14.104;2022-10-14T13:36:52;15.13;;;7.77;;
3121;SDS011;1571;52.524;14.104;2022-10-14T13:39:30;8.27;;;7.50;;
3121;SDS011;1571;52.524;14.104;2022-10-14T13:42:00;8.40;;;7.07;;
3121;SDS011;1571;52.524;14.104;2022-10-14T13:44:29;10.87;;;7.80;;
3121;SDS011;1571;52.524;14.104;2022-10-14T13:47:00;8.33;;;7.40;;
3121;SDS011;1571;52.524;14.104;2022-10-14T13:49:32;7.13;;;6.30;;
3121;SDS011;1571;52.524;14.104;2022-10-14T13:52:04;9.10;;;6.63;;
3121;SDS011;1571;52.524;14.104;2022-10-14T13:54:36;7.00;;;6.10;;
3121;SDS011;1571;52.524;14.104;2022-10-14T13:57:08;10.00;;;6.40;;
3121;SDS011;1571;52.524;14.104;2022-10-14T13:59:57;7.20;;;5.73;;
3121;SDS011;1571;52.524;14.104;2022-10-14T14:02:46;5.83;;;5.33;;
3121;SDS011;1571;52.524;14.104;2022-10-14T14:05:25;6.37;;;5.77;;
3121;SDS011;1571;52.524;14.104;2022-10-14T14:08:01;6.87;;;5.57;;
3121;SDS011;1571;52.524;14.104;2022-10-14T14:10:54;5.87;;;5.27;;
3121;SDS011;1571;52.524;14.104;2022-10-14T14:13:48;6.93;;;5.53;;
3121;SDS011;1571;52.524;14.104;2022-10-14T14:16:28;10.93;;;5.43;;
3121;SDS011;1571;52.524;14.104;2022-10-14T14:18:59;7.13;;;5.30;;
3121;SDS011;1571;52.524;14.104;2022-10-14T14:21:37;6.77;;;4.93;;
3121;SDS011;1571;52.524;14.104;2022-10-14T14:24:10;5.10;;;4.50;;
3121;SDS011;1571;52.524;14.104;2022-10-14T14:26:51;5.30;;;4.40;;
3121;SDS011;1571;52.524;14.104;2022-10-14T14:29:24;5.20;;;4.70;;
3121;SDS011;1571;52.524;14.104;2022-10-14T14:31:55;5.23;;;4.50;;
3121;SDS011;1571;52.524;14.104;2022-10-14T14:34:34;5.40;;;4.30;;
3121;SDS011;1571;52.524;14.104;2022-10-14T14:37:06;4.20;;;3.87;;
3121;SDS011;1571;52.524;14.104;2022-10-14T14:39:55;7.77;;;3.67;;
3121;SDS011;1571;52.524;14.104;2022-10-14T14:42:24;8.10;;;3.33;;
3121;SDS011;1571;52.524;14.104;2022-10-14T14:44:54;3.70;;;3.40;;
3121;SDS011;1571;52.524;14.104;2022-10-14T14:47:28;4.00;;;3.70;;
3121;SDS011;1571;52.524;14.104;2022-10-14T14:49:58;4.60;;;4.20;;
3121;SDS011;1571;52.524;14.104;2022-10-14T14:52:49;5.27;;;4.07;;
3121;SDS011;1571;52.524;14.104;2022-10-14T14:58:12;4.40;;;3.40;;
3121;SDS011;1571;52.524;14.104;2022-10-14T15:00:54;7.43;;;3.27;;
3121;SDS011;1571;52.524;14.104;2022-10-14T15:03:24;5.83;;;3.90;;
3121;SDS011;1571;52.524;14.104;2022-10-14T15:05:56;4.17;;;3.30;;
3121;SDS011;1571;52.524;14.104;2022-10-14T15:08:28;4.50;;;4.10;;
3121;SDS011;1571;52.524;14.104;2022-10-14T15:10:58;6.83;;;3.33;;
3121;SDS011;1571;52.524;14.104;2022-10-14T15:13:28;5.43;;;3.70;;
3121;SDS011;1571;52.524;14.104;2022-10-14T15:15:59;4.87;;;3.60;;
3121;SDS011;1571;52.524;14.104;2022-10-14T15:18:27;3.57;;;2.83;;
3121;SDS011;1571;52.524;14.104;2022-10-14T15:21:10;2.93;;;2.73;;
3121;SDS011;1571;52.524;14.104;2022-10-14T15:23:44;3.10;;;2.80;;
3121;SDS011;1571;52.524;14.104;2022-10-14T15:26:31;3.67;;;3.13;;
3121;SDS011;1571;52.524;14.104;2022-10-14T15:29:05;6.93;;;3.27;;
3121;SDS011;1571;52.524;14.104;2022-10-14T15:31:40;3.37;;;3.07;;
3121;SDS011;1571;52.524;14.104;2022-10-14T15:34:14;5.33;;;3.87;;
3121;SDS011;1571;52.524;14.104;2022-10-14T15:36:44;4.07;;;3.23;;
3121;SDS011;1571;52.524;14.104;2022-10-14T15:39:17;3.90;;;3.50;;
3121;SDS011;1571;52.524;14.104;2022-10-14T15:41:45;4.90;;;2.63;;
3121;SDS011;1571;52.524;14.104;2022-10-14T15:44:14;3.50;;;3.30;;